Terminal Aerodrome Forecast
Issued by NWS

Home | Current Version | Previous Version | Text Only | Print | Product List | Glossary On
Versions: 1 2 3 4 5 6 7 8 9 10 11 12 13 14 15 16
000
FTAK31 PAJN 061143
TAFAJN
TAF
PAJN 061143Z 0612/0712 11015G24KT 4SM RA BR SCT020 OVC040
      WS020/18040KT
     FM061400 10017G28KT 4SM +RA BR FEW007 BKN020 OVC030
      WS020/18050KT
     FM061700 12020G35KT 4SM +RA BR SCT020 OVC030 WS020/17050KT
     FM062100 12014G35KT 5SM RA FEW007 BKN025 OVC035 WS020/18040KT
     FM070200 10012KT P6SM -SHRA FEW010 SCT025 OVC050
     FM070700 09007KT P6SM VCSH OVC060=

USA.gov is the U.S. government's official web portal to all federal, state and local government web resources and services.